Página principal
METAR-TAF:

METAR-TAF

Aeroportos :

Aeroporto Internacional L.F. Wade

Bermudas, Bermudas

latitude: 32-22N, longitude: 064-41W, altura: 6 m

Observação actual do tempo

O boletim foi feito há 18 minutos, às 08:55 UTC
Vento 9 kt de nordeste
Temperatura 22°C
Humidade 65%
Pressão 1021 hPa
Visibilidade 10 km ou mais
Nuvens dispersasa uma altura de 4000 ft
Nuvens fragmentadasa uma altura de 7700 ft
aguaceiros nas vizinhanças

METAR: TXKF 230855Z 04009KT 9999 VCSH SCT040 BKN077 22/15 Q1021

Hora: 06:13 (09:13 UTC)

Previsão

O boletim foi feito há 3 horas e 31 minutos, às 05:42 UTC
Previsão válida de 23 às 06 UTC a 24 às 06 UTC
Vento 15 kt de es-nordeste
Visibilidade 10 km ou mais
Nuvens dispersasa uma altura de 3500 ft
Nuvens fragmentadasa uma altura de 6000 ft

TAF: TXKF 230542Z 2306/2406 07015KT 9999 SCT035 BKN060

Observações e previsões do tempo de mais de 4000 aeroportos (mensagens METAR e TAF).

As estações disponíveis são os pontos amarelos e vermelhos sobre o mapa.

Mova o rato sobre o mapa para ver o nome da estação.

Depois clique no ponto para visualizar as observações e previsões meteorológicas.

Para alterar o mapa : clique nos botões verdes com uma cruz preta para aumentar o zoom; no botão verde com uma pitada de zoom; ou nas setas verdes para mapas adjacentes.


METAR-TAF: